Time;durP1;ratioP1;P1;durP2;ratioP2;P2;SDS_P1;SDS_P2;PMS_P1;PMS_P2;Temp;Humidity;BMP_temperature;BMP_pressure;BME280_temperature;BME280_humidity;BME280_pressure;Samples;Min_cycle;Max_cycle;Signal;HPM_P1;HPM_P2
2022/11/12 00:01:00;;;;;;;12.90;6.90;;;7.20;99.90;;;;;;5038249;28;20661;-71
2022/11/12 00:03:26;;;;;;;7.30;5.50;;;7.10;99.90;;;;;;5030498;28;20207;-71
2022/11/12 00:05:52;;;;;;;6.43;4.97;;;7.10;99.90;;;;;;5027769;28;20258;-73
2022/11/12 00:08:18;;;;;;;6.90;5.27;;;7.00;99.90;;;;;;5026494;28;20651;-72
2022/11/12 00:10:44;;;;;;;7.50;6.60;;;7.00;99.90;;;;;;5031779;28;20187;-74
2022/11/12 00:13:10;;;;;;;10.30;6.77;;;6.90;99.90;;;;;;5026246;28;20508;-74
2022/11/12 00:15:35;;;;;;;9.70;8.03;;;6.80;99.90;;;;;;5028449;28;20557;-74
2022/11/12 00:18:01;;;;;;;9.60;6.93;;;6.80;99.90;;;;;;5025675;28;20214;-71
2022/11/12 00:20:30;;;;;;;8.87;7.17;;;6.80;99.90;;;;;;5028634;28;20693;-73
2022/11/12 00:22:55;;;;;;;9.23;6.07;;;6.70;99.90;;;;;;5028830;28;20235;-73
2022/11/12 00:25:21;;;;;;;5.50;5.00;;;6.70;99.90;;;;;;5028954;28;20201;-72
2022/11/12 00:27:46;;;;;;;7.40;6.10;;;6.70;99.90;;;;;;5029108;28;20195;-73
2022/11/12 00:30:12;;;;;;;9.30;5.77;;;6.70;99.90;;;;;;5028648;28;20203;-74
2022/11/12 00:32:37;;;;;;;10.10;5.50;;;6.60;99.90;;;;;;5026437;28;20195;-74
2022/11/12 00:35:05;;;;;;;7.47;5.43;;;6.60;99.90;;;;;;5027162;28;20198;-74
2022/11/12 00:37:30;;;;;;;8.90;5.70;;;6.60;99.90;;;;;;5031172;28;20737;-73
2022/11/12 00:39:56;;;;;;;10.97;6.27;;;6.60;99.90;;;;;;5036168;28;20206;-74
2022/11/12 00:42:21;;;;;;;9.10;6.10;;;6.60;99.90;;;;;;5034665;28;20199;-73
2022/11/12 00:44:48;;;;;;;6.20;5.40;;;6.60;99.90;;;;;;5037554;28;20214;-75
2022/11/12 00:47:14;;;;;;;6.60;5.43;;;6.60;99.90;;;;;;5037314;28;20213;-74
2022/11/12 00:49:40;;;;;;;7.13;5.13;;;6.60;99.90;;;;;;5039844;28;20194;-75
2022/11/12 00:52:05;;;;;;;7.33;5.67;;;6.50;99.90;;;;;;5033860;28;20204;-73
2022/11/12 00:54:30;;;;;;;7.20;6.27;;;6.50;99.90;;;;;;5028008;28;20292;-75
2022/11/12 00:56:56;;;;;;;9.00;5.13;;;6.50;99.90;;;;;;5025593;28;20253;-75
2022/11/12 00:59:21;;;;;;;7.27;5.43;;;6.50;99.90;;;;;;5027326;28;20741;-75
2022/11/12 01:01:47;;;;;;;6.60;5.63;;;6.50;99.90;;;;;;5026674;28;20600;-75
2022/11/12 01:04:12;;;;;;;7.47;5.90;;;6.50;99.90;;;;;;5026776;28;20207;-76
2022/11/12 01:06:39;;;;;;;7.10;4.90;;;6.50;99.90;;;;;;5022666;28;20196;-74
2022/11/12 01:09:07;;;;;;;6.13;4.13;;;6.50;99.90;;;;;;5025711;28;20286;-73
2022/11/12 01:11:32;;;;;;;6.53;5.27;;;6.50;99.90;;;;;;5022989;28;20199;-73
2022/11/12 01:14:04;;;;;;;6.83;4.10;;;6.60;99.90;;;;;;5025886;28;20235;-73
2022/11/12 01:16:33;;;;;;;5.33;3.50;;;6.60;99.90;;;;;;5027340;28;20213;-71
2022/11/12 01:19:01;;;;;;;4.10;3.70;;;6.70;99.90;;;;;;5027753;28;20206;-72
2022/11/12 01:21:29;;;;;;;6.43;2.80;;;6.80;99.90;;;;;;5026884;28;21001;-71
2022/11/12 01:23:56;;;;;;;5.00;3.30;;;7.00;99.90;;;;;;5025257;28;20727;-71
2022/11/12 01:26:22;;;;;;;3.87;2.90;;;7.10;99.90;;;;;;5026739;28;20233;-71
2022/11/12 01:28:48;;;;;;;3.63;2.80;;;7.20;99.90;;;;;;5025857;28;20226;-72
2022/11/12 01:31:19;;;;;;;6.33;2.90;;;7.30;99.90;;;;;;5026479;28;20192;-72
2022/11/12 01:33:48;;;;;;;4.53;2.97;;;7.40;99.90;;;;;;5028061;28;20274;-71
2022/11/12 01:36:16;;;;;;;7.07;3.50;;;7.40;99.90;;;;;;5026167;28;20203;-71
2022/11/12 01:38:42;;;;;;;4.33;3.57;;;7.40;99.90;;;;;;5026951;28;20294;-71
2022/11/12 01:41:11;;;;;;;5.63;3.23;;;7.50;99.90;;;;;;5026856;28;20211;-71
2022/11/12 01:43:36;;;;;;;5.70;3.00;;;7.50;99.90;;;;;;5026517;28;20211;-71
2022/11/12 01:46:13;;;;;;;4.47;3.00;;;7.50;99.90;;;;;;5030807;28;20214;-71
2022/11/12 01:48:46;;;;;;;4.10;3.20;;;7.50;99.90;;;;;;5023758;28;20194;-71
2022/11/12 01:51:13;;;;;;;4.53;2.97;;;7.50;99.90;;;;;;5027884;28;20198;-71
2022/11/12 01:53:45;;;;;;;2.93;2.63;;;7.50;99.90;;;;;;5026790;28;20352;-70
2022/11/12 01:56:12;;;;;;;3.17;2.93;;;7.60;99.90;;;;;;5030382;28;20317;-70
2022/11/12 01:58:39;;;;;;;4.00;2.60;;;7.60;99.90;;;;;;5036301;28;20205;-70
2022/11/12 02:01:04;;;;;;;3.10;2.73;;;7.50;99.90;;;;;;5033422;28;20195;-70
2022/11/12 02:03:30;;;;;;;4.17;2.50;;;7.50;99.90;;;;;;5028776;28;20321;-71
2022/11/12 02:06:01;;;;;;;3.40;2.70;;;7.50;99.90;;;;;;5026163;28;20245;-71
2022/11/12 02:08:28;;;;;;;5.93;2.50;;;7.50;99.90;;;;;;5030853;28;20210;-74
2022/11/12 02:10:53;;;;;;;2.73;2.50;;;7.50;99.90;;;;;;5031006;28;20312;-74
2022/11/12 02:16:05;;;;;;;4.17;2.60;;;7.50;99.90;;;;;;5031184;28;20212;-72
2022/11/12 02:18:30;;;;;;;3.83;3.00;;;7.40;99.90;;;;;;5030579;28;20240;-73
2022/11/12 02:20:58;;;;;;;2.50;2.30;;;7.40;99.90;;;;;;5024191;28;20203;-70
2022/11/12 02:23:24;;;;;;;4.67;2.90;;;7.40;99.90;;;;;;5030743;28;21069;-70
2022/11/12 02:25:49;;;;;;;4.97;2.73;;;7.40;99.90;;;;;;5030828;28;20191;-72
2022/11/12 02:28:16;;;;;;;3.10;2.80;;;7.40;99.90;;;;;;5030149;28;20194;-72
2022/11/12 02:30:47;;;;;;;4.20;3.80;;;7.40;99.90;;;;;;5030944;28;20269;-72
2022/11/12 02:33:13;;;;;;;4.47;2.63;;;7.40;99.90;;;;;;5032963;28;20222;-71
2022/11/12 02:35:38;;;;;;;3.43;2.47;;;7.40;99.90;;;;;;5038796;28;20739;-72
2022/11/12 02:38:05;;;;;;;5.17;2.70;;;7.30;99.90;;;;;;5040253;28;20230;-73
2022/11/12 02:40:31;;;;;;;4.47;2.93;;;7.30;99.90;;;;;;5039493;28;20203;-73
2022/11/12 02:42:56;;;;;;;6.67;2.97;;;7.20;99.90;;;;;;5038406;28;20218;-73
2022/11/12 02:45:22;;;;;;;3.67;3.10;;;7.20;99.90;;;;;;5042083;28;20222;-73
2022/11/12 02:47:47;;;;;;;3.07;2.63;;;7.20;99.90;;;;;;5035687;28;20203;-68
2022/11/12 02:50:13;;;;;;;3.40;2.40;;;7.20;99.90;;;;;;5039629;28;20213;-67
2022/11/12 02:52:39;;;;;;;2.43;2.10;;;7.20;99.90;;;;;;5039762;28;20225;-75
2022/11/12 02:55:06;;;;;;;6.77;3.07;;;7.20;99.90;;;;;;5039408;28;20249;-75
2022/11/12 02:57:31;;;;;;;5.37;3.17;;;7.10;99.90;;;;;;5037339;28;20281;-74
2022/11/12 02:59:57;;;;;;;4.97;3.00;;;7.10;99.90;;;;;;5037916;28;20707;-74
2022/11/12 03:02:22;;;;;;;4.57;2.97;;;7.10;99.90;;;;;;5039352;28;20190;-75
2022/11/12 03:04:48;;;;;;;3.83;3.17;;;7.00;99.90;;;;;;5038290;28;20219;-74
2022/11/12 03:07:13;;;;;;;3.20;2.90;;;7.00;99.90;;;;;;5038788;28;20244;-74
2022/11/12 03:09:39;;;;;;;3.60;3.30;;;7.00;99.90;;;;;;5038721;28;20191;-74
2022/11/12 03:12:04;;;;;;;4.57;2.60;;;7.00;99.90;;;;;;5036110;28;20566;-75
2022/11/12 03:14:30;;;;;;;2.70;2.50;;;7.00;99.90;;;;;;5040615;28;20660;-74
2022/11/12 03:16:55;;;;;;;4.17;2.40;;;7.00;99.90;;;;;;5036717;28;20313;-74
2022/11/12 03:19:21;;;;;;;3.90;2.80;;;6.90;99.90;;;;;;5039992;28;20283;-75
2022/11/12 03:21:46;;;;;;;3.40;2.30;;;6.90;99.90;;;;;;5039415;28;20611;-75
2022/11/12 03:24:12;;;;;;;4.87;2.80;;;6.80;99.90;;;;;;5036918;28;20198;-74
2022/11/12 03:26:37;;;;;;;3.03;2.70;;;6.80;99.90;;;;;;5039414;28;20199;-74
2022/11/12 03:29:03;;;;;;;2.63;2.43;;;6.70;99.90;;;;;;5038835;28;20207;-69
2022/11/12 03:31:29;;;;;;;8.90;3.60;;;6.70;99.90;;;;;;5035373;28;20710;-71
2022/11/12 03:33:54;;;;;;;3.73;2.67;;;6.70;99.90;;;;;;5035855;28;20678;-76
2022/11/12 03:36:20;;;;;;;3.03;2.60;;;6.70;99.90;;;;;;5038546;28;20340;-76
2022/11/12 03:38:45;;;;;;;4.37;2.40;;;6.70;99.90;;;;;;5033908;28;20213;-76
2022/11/12 03:41:11;;;;;;;4.57;3.10;;;6.70;99.90;;;;;;5038926;28;20560;-76
2022/11/12 03:43:36;;;;;;;4.77;3.00;;;6.80;99.90;;;;;;5036351;28;20780;-76
2022/11/12 03:46:02;;;;;;;3.30;2.97;;;6.70;99.90;;;;;;5029091;28;20199;-76
2022/11/12 03:48:27;;;;;;;5.17;2.57;;;6.60;99.90;;;;;;5029876;28;20235;-76
2022/11/12 03:50:57;;;;;;;4.23;3.17;;;6.60;99.90;;;;;;5026791;28;20563;-76
2022/11/12 03:53:22;;;;;;;4.27;3.10;;;6.50;99.90;;;;;;5028434;28;20224;-76
2022/11/12 03:55:48;;;;;;;5.87;2.97;;;6.50;99.90;;;;;;5028470;28;20229;-72
2022/11/12 03:58:13;;;;;;;3.23;2.80;;;6.40;99.90;;;;;;5028070;28;20229;-73
2022/11/12 04:00:39;;;;;;;3.93;3.20;;;6.40;99.90;;;;;;5037157;28;20206;-72
2022/11/12 04:03:04;;;;;;;4.43;3.27;;;6.30;99.90;;;;;;5036070;28;20211;-76
2022/11/12 04:08:37;;;;;;;4.87;3.40;;;6.20;99.90;;;;;;5036342;28;20222;-75
2022/11/12 04:11:13;;;;;;;4.80;3.33;;;6.10;99.90;;;;;;5038378;28;20689;-74
2022/11/12 04:13:41;;;;;;;4.10;2.97;;;6.10;99.90;;;;;;5038358;28;20198;-75
2022/11/12 04:21:50;;;;;;;12.80;6.00;;;5.90;99.90;;;;;;5041226;28;20295;-78
2022/11/12 04:27:17;;;;;;;9.23;5.03;;;5.90;99.90;;;;;;5037863;28;20206;-76
2022/11/12 04:32:28;;;;;;;6.73;4.53;;;5.80;99.90;;;;;;5037261;28;20901;-73
2022/11/12 04:34:54;;;;;;;7.63;4.43;;;5.80;99.90;;;;;;5037910;28;20409;-75
2022/11/12 04:37:21;;;;;;;11.30;4.33;;;5.70;99.90;;;;;;5032555;28;20330;-67
2022/11/12 04:39:46;;;;;;;6.87;4.43;;;5.80;99.90;;;;;;5035449;28;20207;-74
2022/11/12 04:47:22;;;;;;;7.83;5.17;;;5.70;99.90;;;;;;5025735;28;20192;-72
2022/11/12 04:49:47;;;;;;;6.43;4.97;;;5.60;99.90;;;;;;5037473;28;20349;-72
2022/11/12 04:52:13;;;;;;;7.63;5.47;;;5.60;99.90;;;;;;5027066;28;20195;-70
2022/11/12 04:54:38;;;;;;;7.70;4.73;;;5.60;99.90;;;;;;5029681;28;20210;-72
2022/11/12 04:57:04;;;;;;;8.13;4.50;;;5.50;99.90;;;;;;5030387;28;20291;-73
2022/11/12 04:59:29;;;;;;;5.50;4.13;;;5.50;99.90;;;;;;5025774;28;20240;-77
2022/11/12 05:01:55;;;;;;;5.67;3.60;;;5.50;99.90;;;;;;5029574;28;20211;-71
2022/11/12 05:04:21;;;;;;;5.03;4.13;;;5.50;99.90;;;;;;5026743;28;20475;-75
2022/11/12 05:06:53;;;;;;;5.30;4.37;;;5.50;99.90;;;;;;5029829;28;20207;-70
2022/11/12 05:09:21;;;;;;;7.73;5.60;;;5.50;99.90;;;;;;5022576;28;20199;-68
2022/11/12 05:11:47;;;;;;;7.10;6.40;;;5.40;99.90;;;;;;5023621;28;20258;-74
2022/11/12 05:14:13;;;;;;;7.37;5.40;;;5.40;99.90;;;;;;5028368;28;20768;-72
2022/11/12 05:16:38;;;;;;;12.10;5.50;;;5.40;99.90;;;;;;5025469;28;20214;-73
2022/11/12 05:19:04;;;;;;;7.57;4.80;;;5.30;99.90;;;;;;5027796;28;20207;-73
2022/11/12 05:24:14;;;;;;;8.00;5.10;;;5.30;99.90;;;;;;5026108;28;20212;-73
2022/11/12 05:26:40;;;;;;;6.77;4.70;;;5.30;99.90;;;;;;5026006;28;20208;-74
2022/11/12 05:29:06;;;;;;;5.97;5.03;;;5.30;99.90;;;;;;5024231;28;20210;-71
2022/11/12 05:31:32;;;;;;;5.53;4.43;;;5.20;99.90;;;;;;5024258;28;20248;-68
2022/11/12 05:33:57;;;;;;;7.47;5.53;;;5.20;99.90;;;;;;5027280;28;20202;-71
2022/11/12 05:36:23;;;;;;;5.73;5.10;;;5.20;99.90;;;;;;5027372;28;20203;-65
2022/11/12 05:38:48;;;;;;;5.67;4.73;;;5.20;99.90;;;;;;5026702;28;20202;-70
2022/11/12 05:41:14;;;;;;;7.30;4.87;;;5.20;99.90;;;;;;5024491;28;20204;-57
2022/11/12 05:43:39;;;;;;;6.50;5.37;;;5.20;99.90;;;;;;5026553;28;20237;-56
2022/11/12 05:46:05;;;;;;;8.00;5.77;;;5.30;99.90;;;;;;5026703;28;20646;-59
2022/11/12 05:48:30;;;;;;;6.37;5.07;;;5.40;99.90;;;;;;5025674;28;20242;-59
2022/11/12 05:50:55;;;;;;;8.47;5.80;;;5.50;99.90;;;;;;5025966;28;20207;-59
2022/11/12 05:53:21;;;;;;;7.23;5.23;;;5.50;99.90;;;;;;5025860;28;20322;-59
2022/11/12 05:55:46;;;;;;;7.20;5.50;;;5.50;99.90;;;;;;5028269;28;20587;-58
2022/11/12 05:58:12;;;;;;;5.70;5.03;;;5.60;99.90;;;;;;5023102;28;20326;-59
2022/11/12 06:00:38;;;;;;;6.43;5.03;;;5.60;99.90;;;;;;5035723;28;20195;-66
2022/11/12 06:03:11;;;;;;;5.53;4.70;;;5.70;99.90;;;;;;5026792;28;20637;-66
2022/11/12 06:05:37;;;;;;;8.97;6.10;;;5.70;99.90;;;;;;5025697;28;20191;-73
2022/11/12 06:08:04;;;;;;;8.70;5.90;;;5.60;99.90;;;;;;5027154;28;20209;-71
2022/11/12 06:10:33;;;;;;;6.83;5.10;;;5.60;99.90;;;;;;5026395;28;21607;-69
2022/11/12 06:12:58;;;;;;;6.43;5.03;;;5.50;99.90;;;;;;5026441;28;20622;-71
2022/11/12 06:15:27;;;;;;;6.00;5.03;;;5.40;99.90;;;;;;5031250;28;20213;-70
2022/11/12 06:17:53;;;;;;;10.37;5.70;;;5.40;99.90;;;;;;5027394;28;20670;-73
2022/11/12 06:20:19;;;;;;;9.07;6.07;;;5.30;99.90;;;;;;5026751;28;20391;-74
2022/11/12 06:22:45;;;;;;;7.77;5.50;;;5.30;99.90;;;;;;5026591;28;20268;-73
2022/11/12 06:25:12;;;;;;;8.67;6.03;;;5.30;99.90;;;;;;5026412;28;20206;-69
2022/11/12 06:27:37;;;;;;;8.83;5.57;;;5.30;99.90;;;;;;5024186;28;20203;-71
2022/11/12 06:30:04;;;;;;;11.90;6.10;;;5.30;99.90;;;;;;5025355;28;20569;-65
2022/11/12 06:32:29;;;;;;;9.53;5.63;;;5.20;99.90;;;;;;5025294;28;20915;-66
2022/11/12 06:34:55;;;;;;;7.03;5.20;;;5.20;99.90;;;;;;5025571;28;20662;-66
2022/11/12 06:37:20;;;;;;;7.47;5.47;;;5.20;99.90;;;;;;5025938;28;20203;-66
2022/11/12 06:39:46;;;;;;;8.33;5.80;;;5.20;99.90;;;;;;5029516;28;20289;-65
2022/11/12 06:42:12;;;;;;;5.10;4.60;;;5.20;99.90;;;;;;5025682;28;20293;-66
2022/11/12 06:44:38;;;;;;;5.80;5.20;;;5.20;99.90;;;;;;5029495;28;20211;-67
2022/11/12 06:47:03;;;;;;;5.00;4.40;;;5.20;99.90;;;;;;5032428;28;20199;-66
2022/11/12 06:49:29;;;;;;;9.30;5.57;;;5.20;99.90;;;;;;5029697;28;20201;-68
2022/11/12 06:51:54;;;;;;;12.77;5.60;;;5.30;99.90;;;;;;5027303;28;20224;-62
2022/11/12 06:54:20;;;;;;;9.27;5.33;;;5.40;99.90;;;;;;5029335;28;20229;-61
2022/11/12 06:56:45;;;;;;;8.40;6.00;;;5.50;99.90;;;;;;5029513;28;20225;-58
2022/11/12 06:59:10;;;;;;;7.70;6.40;;;5.70;99.90;;;;;;5029489;28;20581;-58
2022/11/12 07:01:36;;;;;;;11.10;6.43;;;5.80;99.90;;;;;;5029353;28;20302;-58
2022/11/12 07:04:02;;;;;;;14.60;9.60;;;5.90;99.90;;;;;;5027625;28;20219;-58
2022/11/12 07:06:27;;;;;;;12.33;5.90;;;5.90;99.90;;;;;;5029683;28;20204;-59
2022/11/12 07:08:53;;;;;;;11.17;6.20;;;6.00;99.90;;;;;;5029654;28;20211;-58
2022/11/12 07:11:19;;;;;;;7.83;5.77;;;6.10;99.90;;;;;;5029057;28;20199;-58
2022/11/12 07:13:45;;;;;;;9.83;6.00;;;6.20;99.90;;;;;;5029075;28;20760;-58
2022/11/12 07:16:12;;;;;;;8.50;6.60;;;6.30;99.90;;;;;;5029810;28;20198;-58
2022/11/12 07:18:38;;;;;;;10.27;7.57;;;6.40;99.90;;;;;;5026925;28;20211;-59
2022/11/12 07:21:06;;;;;;;13.73;8.87;;;6.40;99.90;;;;;;5031092;28;20214;-59
2022/11/12 07:23:34;;;;;;;6.80;5.83;;;6.40;99.90;;;;;;5026555;28;20765;-58
2022/11/12 07:26:01;;;;;;;10.10;6.90;;;6.40;99.90;;;;;;5027986;28;20211;-56
2022/11/12 07:28:28;;;;;;;10.60;7.67;;;6.50;99.90;;;;;;5027044;28;20610;-57
2022/11/12 07:30:55;;;;;;;13.73;6.93;;;6.60;99.90;;;;;;5038421;28;20190;-67
2022/11/12 07:33:20;;;;;;;7.97;6.33;;;6.60;99.90;;;;;;5029135;28;20203;-58
2022/11/12 07:35:46;;;;;;;9.43;6.90;;;6.70;99.90;;;;;;5029146;28;20225;-59
2022/11/12 07:38:11;;;;;;;11.07;7.03;;;6.90;99.90;;;;;;5029887;28;20199;-58
2022/11/12 07:40:36;;;;;;;14.30;6.60;;;7.00;99.90;;;;;;5036485;28;20210;-59
2022/11/12 07:43:02;;;;;;;9.77;6.43;;;7.00;99.90;;;;;;5029693;28;20641;-61
2022/11/12 07:45:27;;;;;;;7.73;5.70;;;7.10;99.90;;;;;;5028503;28;20210;-60
2022/11/12 07:47:53;;;;;;;9.03;6.80;;;7.20;99.90;;;;;;5034310;28;20194;-59
2022/11/12 07:50:18;;;;;;;10.47;5.37;;;7.20;99.90;;;;;;5030586;28;20198;-58
2022/11/12 07:52:44;;;;;;;10.40;6.80;;;7.30;99.90;;;;;;5023626;28;20200;-59
2022/11/12 07:55:09;;;;;;;9.73;6.23;;;7.40;99.90;;;;;;5026481;28;20597;-59
2022/11/12 07:57:35;;;;;;;8.77;6.43;;;7.40;99.90;;;;;;5031282;28;20202;-59
2022/11/12 08:00:00;;;;;;;14.53;6.97;;;7.50;99.90;;;;;;5027957;28;20685;-59
2022/11/12 08:02:26;;;;;;;14.57;6.73;;;7.50;99.90;;;;;;5027733;28;20208;-61
2022/11/12 08:04:51;;;;;;;9.10;5.80;;;7.60;99.90;;;;;;5039642;28;20221;-67
2022/11/12 08:07:18;;;;;;;10.47;6.23;;;7.70;99.90;;;;;;5026567;28;20223;-67
2022/11/12 08:09:43;;;;;;;10.00;4.30;;;7.70;99.90;;;;;;5027780;28;20207;-68
2022/11/12 08:12:08;;;;;;;9.23;5.63;;;7.80;99.90;;;;;;5023292;28;20196;-68
2022/11/12 08:14:34;;;;;;;8.87;6.10;;;7.90;99.90;;;;;;5027100;28;20217;-68
2022/11/12 08:17:00;;;;;;;14.07;7.83;;;7.90;99.90;;;;;;5030384;28;20202;-68
2022/11/12 08:19:25;;;;;;;7.57;5.87;;;8.00;99.90;;;;;;5020946;28;20198;-68
2022/11/12 08:21:50;;;;;;;12.63;6.10;;;8.00;99.90;;;;;;5027353;28;20191;-67
2022/11/12 08:24:16;;;;;;;10.10;6.13;;;8.10;99.90;;;;;;5028045;28;20219;-68
2022/11/12 08:26:42;;;;;;;7.63;5.17;;;8.20;99.90;;;;;;5039384;28;20260;-68
2022/11/12 08:29:07;;;;;;;8.90;5.83;;;8.20;99.90;;;;;;5033857;28;20311;-67
2022/11/12 08:31:33;;;;;;;6.47;5.13;;;8.30;99.90;;;;;;5037170;28;20663;-68
2022/11/12 08:33:58;;;;;;;7.77;5.50;;;8.40;99.90;;;;;;5035132;28;20290;-67
2022/11/12 08:36:24;;;;;;;8.27;5.47;;;8.40;99.90;;;;;;5036181;28;20207;-68
2022/11/12 08:38:52;;;;;;;7.40;5.00;;;8.50;99.90;;;;;;5038663;28;20262;-68
2022/11/12 08:41:18;;;;;;;6.73;5.60;;;8.60;99.90;;;;;;5037530;28;20218;-68
2022/11/12 08:43:43;;;;;;;7.47;4.80;;;8.60;99.90;;;;;;5032536;28;20226;-67
2022/11/12 08:46:09;;;;;;;8.70;5.53;;;8.70;99.90;;;;;;5025367;28;20199;-68
2022/11/12 08:48:35;;;;;;;6.10;5.50;;;8.70;99.90;;;;;;5021453;28;20282;-67
2022/11/12 08:51:02;;;;;;;8.23;5.57;;;8.80;99.90;;;;;;5027647;28;20195;-68
2022/11/12 08:53:28;;;;;;;8.23;5.60;;;8.90;99.90;;;;;;5029440;28;20212;-68
2022/11/12 08:55:55;;;;;;;7.30;5.80;;;8.90;99.90;;;;;;5025275;28;20234;-69
2022/11/12 08:58:21;;;;;;;16.03;5.90;;;9.00;99.90;;;;;;5027497;28;20305;-68
2022/11/12 09:00:47;;;;;;;6.77;5.83;;;9.10;99.90;;;;;;5026275;28;20286;-68
2022/11/12 09:03:15;;;;;;;8.93;6.73;;;9.10;99.90;;;;;;5025587;28;20315;-66
2022/11/12 09:05:41;;;;;;;8.50;6.03;;;9.10;99.90;;;;;;5027183;28;20668;-68
2022/11/12 09:08:09;;;;;;;11.27;7.23;;;9.20;99.90;;;;;;5027438;28;20683;-68
2022/11/12 09:10:36;;;;;;;7.40;5.93;;;9.30;99.90;;;;;;5026572;28;20200;-68
2022/11/12 09:13:02;;;;;;;10.00;6.67;;;9.40;99.90;;;;;;5025869;28;20217;-68
2022/11/12 09:15:28;;;;;;;10.67;7.13;;;9.50;99.90;;;;;;5036992;28;20192;-70
2022/11/12 09:17:55;;;;;;;9.63;6.73;;;9.60;99.90;;;;;;5036917;28;20571;-69
2022/11/12 09:20:21;;;;;;;10.03;7.37;;;9.70;99.90;;;;;;5036660;28;20679;-68
2022/11/12 09:22:46;;;;;;;12.30;8.50;;;9.80;99.90;;;;;;5036867;28;20285;-68
2022/11/12 09:25:12;;;;;;;13.30;8.30;;;9.90;99.90;;;;;;5035348;28;20366;-67
2022/11/12 09:27:37;;;;;;;13.70;10.30;;;10.00;99.90;;;;;;5037243;28;20185;-68
2022/11/12 09:30:03;;;;;;;8.60;7.70;;;10.10;99.90;;;;;;5026017;28;20673;-68
2022/11/12 09:32:29;;;;;;;16.50;10.20;;;10.10;99.90;;;;;;5033874;28;20258;-69
2022/11/12 09:34:54;;;;;;;12.53;9.23;;;10.20;99.90;;;;;;5028723;28;20212;-69
2022/11/12 09:37:20;;;;;;;12.87;9.03;;;10.30;99.90;;;;;;5026030;28;20201;-69
2022/11/12 09:39:45;;;;;;;13.23;9.07;;;10.40;99.90;;;;;;5024032;28;20203;-68
2022/11/12 09:42:16;;;;;;;14.93;9.47;;;10.50;99.90;;;;;;5032125;28;20579;-68
2022/11/12 09:44:45;;;;;;;16.90;9.47;;;10.60;99.90;;;;;;5026052;28;20289;-69
2022/11/12 09:47:24;;;;;;;15.50;10.50;;;10.80;99.90;;;;;;5027427;28;21062;-69
2022/11/12 09:50:00;;;;;;;13.87;10.90;;;11.00;99.90;;;;;;5021806;28;20235;-68
2022/11/12 09:52:28;;;;;;;13.70;9.00;;;11.10;99.90;;;;;;5034169;28;20282;-68
2022/11/12 09:55:08;;;;;;;12.73;9.23;;;11.20;99.90;;;;;;5036060;28;20580;-68
2022/11/12 09:57:34;;;;;;;15.90;10.00;;;11.40;99.90;;;;;;5032780;28;20209;-68
2022/11/12 10:00:01;;;;;;;18.47;11.47;;;11.60;99.90;;;;;;5038083;28;20197;-68
2022/11/12 10:02:38;;;;;;;17.30;10.00;;;11.70;99.90;;;;;;5036079;28;20197;-69
2022/11/12 10:05:32;;;;;;;12.03;9.80;;;11.90;99.90;;;;;;5028541;28;20310;-69
2022/11/12 10:08:18;;;;;;;14.63;9.87;;;12.10;99.90;;;;;;5034433;28;20252;-68
2022/11/12 10:10:48;;;;;;;13.53;10.17;;;12.30;99.90;;;;;;5033638;28;20678;-68
2022/11/12 10:13:29;;;;;;;15.83;10.87;;;12.30;99.90;;;;;;5036150;28;20897;-68
2022/11/12 10:16:44;;;;;;;15.73;11.03;;;12.40;99.90;;;;;;5034026;28;20268;-68
2022/11/12 10:19:30;;;;;;;15.50;11.17;;;12.40;99.90;;;;;;5027353;28;20672;-69
2022/11/12 10:22:17;;;;;;;18.30;10.20;;;12.40;99.90;;;;;;5038602;28;20612;-68
2022/11/12 10:24:43;;;;;;;17.53;11.47;;;12.40;99.90;;;;;;5037202;28;20295;-67
2022/11/12 10:27:16;;;;;;;17.63;12.00;;;12.50;99.90;;;;;;5039209;28;20204;-68
2022/11/12 10:29:58;;;;;;;13.10;9.27;;;12.50;99.90;;;;;;5042390;28;20206;-68
2022/11/12 10:32:24;;;;;;;13.27;9.00;;;12.70;99.90;;;;;;5030602;28;20199;-68
2022/11/12 10:34:49;;;;;;;14.00;8.80;;;12.80;99.90;;;;;;5036368;28;20684;-68
2022/11/12 10:37:46;;;;;;;14.67;8.67;;;12.90;99.90;;;;;;5040424;28;20662;-68
2022/11/12 10:40:28;;;;;;;13.57;8.87;;;13.10;99.90;;;;;;5035833;28;20286;-68
2022/11/12 10:43:15;;;;;;;13.90;10.77;;;13.30;99.90;;;;;;5040617;28;20202;-67
2022/11/12 10:45:42;;;;;;;15.60;10.00;;;13.40;99.90;;;;;;5034355;28;20618;-69
2022/11/12 10:48:27;;;;;;;12.17;9.63;;;13.50;99.90;;;;;;5038676;28;20718;-68
2022/11/12 10:50:53;;;;;;;21.23;9.90;;;13.60;99.90;;;;;;5036545;28;20268;-68
2022/11/12 10:53:37;;;;;;;15.97;10.00;;;13.70;99.90;;;;;;5032221;28;20239;-68
2022/11/12 10:56:05;;;;;;;13.97;9.47;;;13.70;99.90;;;;;;5037575;28;20239;-68
2022/11/12 10:58:30;;;;;;;12.50;9.63;;;13.80;99.90;;;;;;5038080;28;20239;-68
2022/11/12 11:00:58;;;;;;;14.67;9.90;;;13.90;99.90;;;;;;5037180;28;20237;-68
2022/11/12 11:03:28;;;;;;;15.27;9.70;;;14.10;99.90;;;;;;5041146;28;20360;-67
2022/11/12 11:06:00;;;;;;;16.97;9.80;;;14.30;99.90;;;;;;5038168;28;20186;-67
2022/11/12 11:08:38;;;;;;;16.40;10.17;;;14.50;99.90;;;;;;5037908;28;20202;-68
2022/11/12 11:11:15;;;;;;;15.33;9.83;;;14.70;99.90;;;;;;5037196;28;20226;-69
2022/11/12 11:13:45;;;;;;;15.47;9.37;;;14.80;99.90;;;;;;5038968;28;20198;-70
2022/11/12 11:16:20;;;;;;;11.47;7.17;;;15.10;99.90;;;;;;5042621;28;20194;-68
2022/11/12 11:18:51;;;;;;;10.93;8.07;;;15.30;99.90;;;;;;5037456;28;20193;-65
2022/11/12 11:21:52;;;;;;;10.17;7.07;;;15.30;99.90;;;;;;5026337;28;20199;-70
2022/11/12 11:24:30;;;;;;;9.93;7.57;;;15.50;99.90;;;;;;5032546;28;20210;-69
2022/11/12 11:27:28;;;;;;;11.10;7.77;;;15.70;99.90;;;;;;5024460;28;20192;-69
2022/11/12 11:30:07;;;;;;;10.37;6.80;;;15.80;99.90;;;;;;5028350;28;20289;-70
2022/11/12 11:32:45;;;;;;;9.13;6.50;;;15.80;99.90;;;;;;5033244;28;20286;-69
2022/11/12 11:35:25;;;;;;;11.70;8.43;;;15.80;99.90;;;;;;5028459;28;20218;-68
2022/11/12 11:38:22;;;;;;;13.87;8.43;;;15.80;99.90;;;;;;5026681;28;20203;-67
2022/11/12 11:41:29;;;;;;;13.20;8.50;;;15.70;99.90;;;;;;5024595;28;20215;-66
2022/11/12 11:44:03;;;;;;;10.80;7.67;;;15.40;99.90;;;;;;5008163;28;20219;-68
2022/11/12 11:46:40;;;;;;;13.30;8.97;;;15.00;99.90;;;;;;5017911;28;20284;-66
2022/11/12 11:49:46;;;;;;;13.40;8.73;;;14.90;99.90;;;;;;5027460;28;20214;-68
2022/11/12 11:52:31;;;;;;;11.83;7.67;;;14.70;99.90;;;;;;5040350;28;20193;-68
2022/11/12 11:55:15;;;;;;;11.43;7.73;;;14.60;99.90;;;;;;5037245;28;20542;-70
2022/11/12 11:58:12;;;;;;;14.53;9.10;;;14.70;99.90;;;;;;5029179;28;20261;-69
2022/11/12 12:00:47;;;;;;;11.57;8.87;;;14.90;99.90;;;;;;5041087;28;20251;-68
2022/11/12 12:03:44;;;;;;;19.37;9.43;;;15.30;99.90;;;;;;5036512;28;20232;-68
2022/11/12 12:06:29;;;;;;;12.23;8.67;;;15.60;99.90;;;;;;5036231;28;20202;-70
2022/11/12 12:09:06;;;;;;;11.60;9.00;;;16.00;99.90;;;;;;5037596;28;20199;-68
2022/11/12 12:11:47;;;;;;;14.17;8.67;;;16.50;99.90;;;;;;5027476;28;20273;-69
2022/11/12 12:14:40;;;;;;;15.27;8.80;;;17.00;99.90;;;;;;5041418;28;20589;-69
2022/11/12 12:17:39;;;;;;;12.30;8.63;;;17.30;99.90;;;;;;5034879;28;20403;-69
2022/11/12 12:20:32;;;;;;;17.67;8.77;;;17.80;99.90;;;;;;5040514;28;20233;-69
2022/11/12 12:23:03;;;;;;;10.50;8.20;;;18.20;99.90;;;;;;5034244;28;20224;-70
2022/11/12 12:25:35;;;;;;;10.90;7.83;;;18.50;99.90;;;;;;5024717;28;20203;-70
2022/11/12 12:28:07;;;;;;;10.10;6.73;;;19.00;99.90;;;;;;5029048;28;20843;-70
2022/11/12 12:30:36;;;;;;;9.03;7.70;;;19.50;99.90;;;;;;5020340;28;20201;-69
2022/11/12 12:33:21;;;;;;;13.40;8.30;;;19.90;99.90;;;;;;5030740;28;20202;-69
2022/11/12 12:36:04;;;;;;;11.83;8.20;;;19.90;98.90;;;;;;5024809;28;20919;-68
2022/11/12 12:39:11;;;;;;;12.27;7.90;;;20.00;99.00;;;;;;5029880;28;20563;-69
2022/11/12 12:42:00;;;;;;;12.37;7.47;;;20.20;98.80;;;;;;5011987;28;20195;-67
2022/11/12 12:47:18;;;;;;;12.40;8.53;;;20.10;97.60;;;;;;5035844;28;20930;-69
2022/11/12 12:49:45;;;;;;;14.63;8.70;;;19.80;97.70;;;;;;5034717;28;20574;-68
2022/11/12 12:52:14;;;;;;;12.27;7.30;;;19.80;98.00;;;;;;5037514;28;20210;-68
2022/11/12 12:54:39;;;;;;;11.60;7.83;;;20.10;97.90;;;;;;5033632;28;20226;-69
2022/11/12 12:57:29;;;;;;;12.33;7.70;;;20.50;97.10;;;;;;5036656;28;20682;-69
2022/11/12 13:00:25;;;;;;;14.17;7.97;;;21.00;97.00;;;;;;5035062;28;20742;-70
2022/11/12 13:02:51;;;;;;;10.73;7.27;;;21.70;96.00;;;;;;5035013;28;20216;-69
2022/11/12 13:05:25;;;;;;;9.63;6.93;;;22.20;95.00;;;;;;5035261;28;20248;-68
2022/11/12 13:07:52;;;;;;;11.37;7.90;;;22.70;93.90;;;;;;5035457;28;20618;-69
2022/11/12 13:10:46;;;;;;;12.50;7.73;;;23.00;93.10;;;;;;5035631;28;20218;-69
2022/11/12 13:13:17;;;;;;;11.93;6.87;;;23.50;92.00;;;;;;5035755;28;20209;-68
2022/11/12 13:15:45;;;;;;;10.87;7.57;;;23.80;91.40;;;;;;5035887;28;20202;-68
2022/11/12 13:18:31;;;;;;;7.93;6.60;;;24.20;90.00;;;;;;5034997;28;20741;-72
2022/11/12 13:21:13;;;;;;;13.93;7.40;;;24.10;88.80;;;;;;5036121;28;20677;-70
2022/11/12 13:24:09;;;;;;;14.53;7.73;;;23.40;89.10;;;;;;5035921;28;20225;-68
2022/11/12 13:26:42;;;;;;;10.30;7.87;;;22.10;90.60;;;;;;5033757;28;20206;-72
2022/11/12 13:29:27;;;;;;;13.17;8.10;;;20.90;91.70;;;;;;5037116;28;20235;-68
2022/11/12 13:32:30;;;;;;;12.57;7.07;;;19.80;93.10;;;;;;5033927;28;20733;-68